This is the latest recevied weather packets stored in our database for station/object K1RFS. If no packets are shown the sender has not sent any weather packets the latest 10 day(s).
| Time | Temp. | Humidity | Pressure | Rain* | Wind** | Luminosity | Snow |
|---|---|---|---|---|---|---|---|
| 1787594504 | 30.56° C | 30% | 1007.6 hPa | 0 mm | - | 557 W/m² | - |
| 1787594203 | 30.56° C | 30% | 1007.8 hPa | 0 mm | - | 552 W/m² | - |
| 1787593898 | 30° C | 32% | 1007.8 hPa | 0 mm | - | 361 W/m² | - |
| 1787593594 | 30° C | 32% | 1007.6 hPa | 0 mm | - | 55 W/m² | - |
| 1787593289 | 30° C | 32% | 1007.8 hPa | 0 mm | - | 56 W/m² | - |
| 1787592984 | 30° C | 33% | 1007.8 hPa | 0 mm | - | 65 W/m² | - |
| 1787592679 | 30° C | 32% | 1007.7 hPa | 0 mm | - | 70 W/m² | - |
| 1787592378 | 30° C | 31% | 1007.8 hPa | 0 mm | - | 71 W/m² | - |
| 1787592075 | 29.44° C | 31% | 1007.4 hPa | 0 mm | - | 90 W/m² | - |
| 1787591775 | 28.89° C | 32% | 1007.7 hPa | 0 mm | - | 102 W/m² | - |
| 1787591470 | 27.78° C | 37% | 1007.6 hPa | 0 mm | - | 93 W/m² | - |
| 1787591167 | 27.22° C | 38% | 1007.8 hPa | 0 mm | - | 93 W/m² | - |
| 1787590863 | 27.22° C | 41% | 1007.7 hPa | 0 mm | - | 105 W/m² | - |
| 1787590557 | 27.22° C | 42% | 1007.8 hPa | 0 mm | - | 130 W/m² | - |
| 1787590252 | 26.67° C | 41% | 1007.7 hPa | 0 mm | - | 97 W/m² | - |
| 1787589948 | 27.22° C | 41% | 1007.9 hPa | 0 mm | - | 103 W/m² | - |
| 1787589644 | 27.22° C | 40% | 1007.6 hPa | 0 mm | - | 107 W/m² | - |
| 1787589343 | 27.22° C | 40% | 1007.4 hPa | 0 mm | - | 86 W/m² | - |
| 1787589039 | 26.67° C | 43% | 1007.6 hPa | 0 mm | - | 76 W/m² | - |
| 1787588734 | 26.11° C | 42% | 1007.8 hPa | 0 mm | - | 71 W/m² | - |
| 1787588431 | 25.56° C | 44% | 1007.8 hPa | 0 mm | - | 72 W/m² | - |
| 1787588125 | 25° C | 45% | 1007.9 hPa | 0 mm | - | 65 W/m² | - |
| 1787587821 | 25° C | 46% | 1007.7 hPa | 0 mm | - | 60 W/m² | - |
| 1787587520 | 23.89° C | 48% | 1007.8 hPa | 0 mm | - | 95 W/m² | - |
| 1787587220 | 22.78° C | 53% | 1007.6 hPa | 1.27 mm | - | 97 W/m² | - |
* Rain latest hour (hover to see other rain measurements)
** Current wind speed in m/s (hover to see current wind gust speed)